createdAt,value
2023-05-15T00:04:34.146Z,51.74
2023-05-15T00:09:26.985Z,51.42
2023-05-15T00:14:19.747Z,51.58
2023-05-15T00:19:12.602Z,51.56
2023-05-15T00:24:06.034Z,51.20
2023-05-15T00:28:59.255Z,51.15
2023-05-15T00:33:52.065Z,50.94
2023-05-15T00:38:45.118Z,51.08
2023-05-15T00:43:40.971Z,50.76
2023-05-15T00:48:36.843Z,50.75
2023-05-15T00:53:29.744Z,50.66
2023-05-15T00:58:23.625Z,50.45
2023-05-15T01:03:16.935Z,50.24
2023-05-15T01:08:24.810Z,50.20
2023-05-15T01:13:17.901Z,50.35
2023-05-15T01:18:11.144Z,50.50
2023-05-15T01:23:15.822Z,50.61
2023-05-15T01:28:13.487Z,50.43
2023-05-15T01:33:13.004Z,50.07
2023-05-15T01:38:18.050Z,49.86
2023-05-15T01:43:16.874Z,50.22
2023-05-15T01:48:10.759Z,49.99
2023-05-15T01:53:05.175Z,50.00
2023-05-15T01:58:01.741Z,49.96
2023-05-15T02:02:54.957Z,49.69
2023-05-15T02:07:49.198Z,49.59
2023-05-15T02:12:43.648Z,49.51
2023-05-15T02:17:36.711Z,49.86
2023-05-15T02:22:29.582Z,49.73
2023-05-15T02:27:28.272Z,50.31
2023-05-15T02:32:34.797Z,50.40
2023-05-15T02:37:32.245Z,50.24
2023-05-15T02:42:25.013Z,50.50
2023-05-15T02:47:18.749Z,50.66
2023-05-15T02:52:11.911Z,50.42
2023-05-15T02:57:05.233Z,49.94
2023-05-15T03:01:58.062Z,50.24
2023-05-15T03:06:50.907Z,49.86
2023-05-15T03:11:43.713Z,50.21
2023-05-15T03:16:37.292Z,50.34
2023-05-15T03:21:30.104Z,49.96
2023-05-15T03:26:23.226Z,49.88
2023-05-15T03:31:16.050Z,49.65
2023-05-15T03:36:09.036Z,49.56
2023-05-15T03:41:01.893Z,49.76
2023-05-15T03:45:55.797Z,49.47
2023-05-15T03:50:49.172Z,49.39
2023-05-15T03:55:42.109Z,49.17
2023-05-15T04:00:34.983Z,48.97
2023-05-15T04:05:27.958Z,49.23
2023-05-15T04:10:21.209Z,49.78
2023-05-15T04:15:23.037Z,49.53
2023-05-15T04:20:18.829Z,49.78
2023-05-15T04:25:13.717Z,50.68
2023-05-15T04:30:07.340Z,50.57
2023-05-15T04:35:00.554Z,50.69
2023-05-15T04:39:53.401Z,50.80
2023-05-15T04:44:46.828Z,50.52
2023-05-15T04:49:41.406Z,50.81
2023-05-15T04:54:34.230Z,50.51
2023-05-15T04:59:28.718Z,50.63
2023-05-15T05:04:21.625Z,51.05
2023-05-15T05:09:14.902Z,50.71
2023-05-15T05:14:08.638Z,50.19
2023-05-15T05:19:02.417Z,49.67
2023-05-15T05:23:55.249Z,49.74
2023-05-15T05:28:51.060Z,49.46
2023-05-15T05:33:43.897Z,49.17
2023-05-15T05:38:37.988Z,49.39
2023-05-15T05:43:32.571Z,49.37
2023-05-15T05:48:26.737Z,49.04
2023-05-15T05:53:19.686Z,49.29
2023-05-15T05:58:24.061Z,49.75
2023-05-15T06:03:17.741Z,50.72
2023-05-15T06:08:11.200Z,51.54
2023-05-15T06:13:04.098Z,51.89
2023-05-15T06:17:56.856Z,52.93
2023-05-15T06:22:49.722Z,54.02
2023-05-15T06:27:42.841Z,55.06
2023-05-15T06:32:35.955Z,55.78
2023-05-15T06:37:29.036Z,56.45
2023-05-15T06:42:21.803Z,57.49
2023-05-15T06:47:14.647Z,58.64
2023-05-15T06:52:07.779Z,59.57
2023-05-15T06:57:00.742Z,60.18
2023-05-15T07:01:53.687Z,60.82
2023-05-15T07:06:46.516Z,61.48
2023-05-15T07:11:40.332Z,62.23
2023-05-15T07:16:33.147Z,63.00
2023-05-15T07:21:26.334Z,63.41
2023-05-15T07:26:28.754Z,63.95
2023-05-15T07:31:27.485Z,64.32
2023-05-15T07:36:20.310Z,64.28
2023-05-15T07:41:13.086Z,64.45
2023-05-15T07:46:05.984Z,64.43
2023-05-15T07:50:58.829Z,64.83
2023-05-15T07:55:52.001Z,65.00
2023-05-15T08:00:45.089Z,65.37
2023-05-15T08:05:37.874Z,64.87
2023-05-15T08:10:31.301Z,65.02
2023-05-15T08:15:24.613Z,64.64
2023-05-15T08:20:18.359Z,64.92
2023-05-15T08:25:11.819Z,64.98
2023-05-15T08:30:05.306Z,65.38
2023-05-15T08:34:58.895Z,65.29
2023-05-15T08:39:51.718Z,65.62
2023-05-15T08:44:45.610Z,65.62
2023-05-15T08:49:54.039Z,65.96
2023-05-15T08:54:48.568Z,66.33
2023-05-15T08:59:41.544Z,66.75
2023-05-15T09:04:34.787Z,67.07
2023-05-15T09:09:29.423Z,67.35
2023-05-15T09:14:22.239Z,67.65
2023-05-15T09:19:16.658Z,67.82
2023-05-15T09:24:18.932Z,68.18
2023-05-15T09:29:12.881Z,68.40
2023-05-15T09:34:06.547Z,68.54
2023-05-15T09:39:01.506Z,68.71
2023-05-15T09:43:56.967Z,68.83
2023-05-15T09:48:50.889Z,69.00
2023-05-15T09:53:43.947Z,68.66
2023-05-15T09:58:36.916Z,68.45
2023-05-15T10:03:29.822Z,68.07
2023-05-15T10:08:29.361Z,67.66
2023-05-15T10:13:24.105Z,67.61
2023-05-15T10:18:19.983Z,67.81
2023-05-15T10:23:16.386Z,68.04
2023-05-15T10:28:11.269Z,68.27
2023-05-15T10:33:06.459Z,68.08
2023-05-15T10:43:07.127Z,68.63
2023-05-15T10:48:00.879Z,68.74
2023-05-15T10:52:54.043Z,69.03
2023-05-15T10:57:48.465Z,69.14
2023-05-15T11:02:41.350Z,69.52
2023-05-15T11:07:34.195Z,69.79
2023-05-15T11:12:27.739Z,70.04
2023-05-15T11:17:20.674Z,70.25
2023-05-15T11:22:16.837Z,70.45
2023-05-15T11:27:14.520Z,70.73
2023-05-15T11:32:42.621Z,71.13
2023-05-15T11:37:39.366Z,71.48
2023-05-15T11:42:33.600Z,71.66
2023-05-15T11:47:26.814Z,71.89
2023-05-15T11:52:19.728Z,72.10
2023-05-15T11:57:13.390Z,72.32
2023-05-15T12:02:07.666Z,72.46
2023-05-15T12:07:03.301Z,72.60
2023-05-15T12:11:57.045Z,72.82
2023-05-15T12:16:53.491Z,72.92
2023-05-15T12:21:49.289Z,73.01
2023-05-15T12:26:42.328Z,73.24
2023-05-15T12:31:36.938Z,73.49
2023-05-15T12:36:31.138Z,73.69
2023-05-15T12:41:29.445Z,73.96
2023-05-15T12:46:30.552Z,74.01
2023-05-15T12:51:24.133Z,74.19
2023-05-15T12:56:17.689Z,74.23
2023-05-15T13:01:10.688Z,74.46
2023-05-15T13:06:04.452Z,74.75
2023-05-15T13:10:59.263Z,74.87
2023-05-15T13:15:52.163Z,75.56
2023-05-15T13:20:47.724Z,75.34
2023-05-15T13:25:40.583Z,75.63
2023-05-15T13:30:36.789Z,75.66
2023-05-15T13:35:29.704Z,75.71
2023-05-15T13:40:22.859Z,75.71
2023-05-15T13:45:17.068Z,75.76
2023-05-15T13:50:11.905Z,75.67
2023-05-15T13:55:05.534Z,75.82
2023-05-15T13:59:58.352Z,75.59
2023-05-15T14:04:51.160Z,75.58
2023-05-15T14:09:44.013Z,75.64
2023-05-15T14:14:37.057Z,75.31
2023-05-15T14:19:29.882Z,74.76
2023-05-15T14:24:22.924Z,74.75
2023-05-15T14:29:15.898Z,74.84
2023-05-15T14:34:08.782Z,74.77
2023-05-15T14:39:01.606Z,74.46
2023-05-15T14:43:54.461Z,74.72
2023-05-15T14:48:47.438Z,75.20
2023-05-15T14:53:40.210Z,75.24
2023-05-15T14:58:33.566Z,75.60
2023-05-15T15:03:28.624Z,75.80
2023-05-15T15:08:22.462Z,75.90
2023-05-15T15:13:16.680Z,75.93
2023-05-15T15:18:09.619Z,76.01
2023-05-15T15:23:02.522Z,76.05
2023-05-15T15:27:55.521Z,76.07
2023-05-15T15:32:48.562Z,76.30
2023-05-15T15:37:41.446Z,76.25
2023-05-15T15:42:35.212Z,76.45
2023-05-15T15:47:29.726Z,76.60
2023-05-15T15:52:22.586Z,76.79
2023-05-15T15:57:16.810Z,76.62
2023-05-15T16:02:10.783Z,76.45
2023-05-15T16:07:04.806Z,76.43
2023-05-15T16:11:57.879Z,76.38
2023-05-15T16:16:51.099Z,75.94
2023-05-15T16:21:45.335Z,76.04
2023-05-15T16:26:41.225Z,75.78
2023-05-15T16:31:34.504Z,76.09
2023-05-15T16:36:28.453Z,76.23
2023-05-15T16:41:22.906Z,76.29
2023-05-15T16:46:16.210Z,76.78
2023-05-15T16:51:09.172Z,77.30
2023-05-15T16:56:02.205Z,77.38
2023-05-15T17:00:54.999Z,77.56
2023-05-15T17:05:48.640Z,77.73
2023-05-15T17:10:41.627Z,77.95
2023-05-15T17:15:35.027Z,78.19
2023-05-15T17:20:28.829Z,78.27
2023-05-15T17:25:21.680Z,78.37
2023-05-15T17:30:14.616Z,78.44
2023-05-15T17:35:11.214Z,78.59
2023-05-15T17:40:04.796Z,78.83
2023-05-15T17:44:57.946Z,79.01
2023-05-15T17:49:50.790Z,79.27
2023-05-15T17:54:43.633Z,79.27
2023-05-15T17:59:36.431Z,79.39
2023-05-15T18:04:29.708Z,79.39
2023-05-15T18:09:24.306Z,79.90
2023-05-15T18:14:17.630Z,79.81
2023-05-15T18:19:10.781Z,79.98
2023-05-15T18:24:03.767Z,80.08
2023-05-15T18:28:57.046Z,80.09
2023-05-15T18:33:49.881Z,80.17
2023-05-15T18:38:42.798Z,80.30
2023-05-15T18:43:35.593Z,80.51
2023-05-15T18:48:28.394Z,80.77
2023-05-15T18:53:21.203Z,80.84
2023-05-15T18:58:14.040Z,80.92
2023-05-15T19:03:07.087Z,80.96
2023-05-15T19:08:00.000Z,80.96
2023-05-15T19:12:52.854Z,81.11
2023-05-15T19:17:45.714Z,81.18
2023-05-15T19:22:38.504Z,81.31
2023-05-15T19:27:32.075Z,81.43
2023-05-15T19:32:25.105Z,81.49
2023-05-15T19:37:18.140Z,81.56
2023-05-15T19:42:10.984Z,81.65
2023-05-15T19:47:04.056Z,81.76
2023-05-15T19:51:56.858Z,81.82
2023-05-15T19:56:50.182Z,81.82
2023-05-15T20:01:43.299Z,81.85
2023-05-15T20:06:36.710Z,82.32
2023-05-15T20:11:30.027Z,82.09
2023-05-15T20:16:23.349Z,82.24
2023-05-15T20:21:17.206Z,82.28
2023-05-15T20:26:10.405Z,82.38
2023-05-15T20:31:04.110Z,82.46
2023-05-15T20:35:57.341Z,82.46
2023-05-15T20:40:50.898Z,82.52
2023-05-15T20:45:43.784Z,82.64
2023-05-15T20:50:36.635Z,82.57
2023-05-15T20:55:29.803Z,82.50
2023-05-15T21:00:23.009Z,82.48
2023-05-15T21:05:16.234Z,82.70
2023-05-15T21:10:11.628Z,82.87
2023-05-15T21:15:06.785Z,83.02
2023-05-15T21:20:01.180Z,83.18
2023-05-15T21:24:54.819Z,83.35
2023-05-15T21:29:48.771Z,83.23
2023-05-15T21:34:42.404Z,83.32
2023-05-15T21:39:35.318Z,83.37
2023-05-15T21:44:28.188Z,83.45
2023-05-15T21:49:21.019Z,83.40
2023-05-15T21:54:13.884Z,83.44
2023-05-15T21:59:06.783Z,83.46
2023-05-15T22:03:59.868Z,83.31
2023-05-15T22:08:52.677Z,83.19
2023-05-15T22:13:45.468Z,83.25
2023-05-15T22:18:38.270Z,82.77
2023-05-15T22:23:31.574Z,82.77
2023-05-15T22:28:24.660Z,82.98
2023-05-15T22:33:17.451Z,82.61
2023-05-15T22:38:10.663Z,82.97
2023-05-15T22:43:04.050Z,82.75
2023-05-15T22:47:57.550Z,82.77
2023-05-15T22:52:51.305Z,82.71
2023-05-15T22:57:45.254Z,82.95
2023-05-15T23:02:38.835Z,83.18
2023-05-15T23:07:31.621Z,83.05
2023-05-15T23:12:24.925Z,83.27
2023-05-15T23:17:18.100Z,83.74
2023-05-15T23:22:12.150Z,84.08
2023-05-15T23:27:05.767Z,83.92
2023-05-15T23:31:58.897Z,83.81
2023-05-15T23:36:51.730Z,83.72
2023-05-15T23:41:44.550Z,83.53
2023-05-15T23:46:39.213Z,83.42
2023-05-15T23:51:32.498Z,83.51
2023-05-15T23:56:25.670Z,83.43
